PDX weather

Public forecast

Using degrees Fahrenheit for public forecast. Weather courtesy of forecast.io.

Current aviation weather report (METAR) for Portland International Airport

Retrieved 2020/08/13 01:53 UTC (1 hour ago):

KPDX 130153Z 34007KT 10SM FEW070 FEW250 22/07 A3005 RMK AO2 SLP175 T02170072

Aviation forecast (TAF) for Portland International Airport

Retrieved 2020-08-13 00:22 UTC (3 hours ago):

TAF KPDX 122320Z 1300/1324 34009KT P6SM SCT050 SCT100 SCT250 FM130500 32006KT P6SM SCT250 FM131300 34003KT P6SM SCT025 FM132000 32008KT P6SM SKC